LiveATC.Net - Listen to live air traffic control over the Internet! Contact LiveATC.net for advertising information


ICAO: KGKY  IATA: GKY   Airport: Arlington Municipal Airport
City: Arlington   State/Province: Texas
Country: United States   Continent: North America
KGKY METAR Weather: KGKY 311711Z 30009KT 10SM BKN011 OVC021 26/21 A2999 RMK AO2
KGKY Flight Activity (FlightAware)
KGKY Airport Info   (AirNav) (iFlightPlanner)
KGKY Ground/Tower
Feed Status: DOWN
Last heard on: 2014-07-31 05:16:03 (0 days 12 hours 18 minutes ago)
KGKY Ground/Tower Audio Archives
FacilityFrequency
Arlington Ground121.875
Arlington Tower128.625


NOTICE

Unauthorized use prohibited. See LiveATC.net Terms of Service


Find LiveATC Audio Streams


Airport/ARTCC Code

Frequency
(e.g., 124.400, 128.75)
Site-wide search

Browse LiveATC Feeds
LiveATC Coverage Map
Top 50 LiveATC Feeds
Bad Weather Areas

LiveATC FAQ
Offer a LiveATC Feed
Contact LiveATC.net
Press Inquiries

LiveATC on iPhone
LiveATC on Android

LiveATC Mobile
(Mobile browser)

ATC Audio Archives
Interesting Recordings

LiveATC Forums


Home Page
About LiveATC.net
Make a Donation
LiveATC Bookstore

Terms of Use
Privacy Policy

ATC/Radar Sites
U.S. ARTCC Freqs
Canadian Air Freqs

AIRMETs/SIGMETs

FAA Airport Status
Nat'l Airspace Status
Arrival Demand Charts


Server Software By:
Icecast.org
Liquidsoap

Please make a donation to help us keep growing!